sensor_id;sensor_type;location;lat;lon;timestamp;P1;durP1;ratioP1;P2;durP2;ratioP2
59442;SDS011;45247;47.466;19.004;2024-02-26T00:01:27;30.88;;;20.42;;
59442;SDS011;45247;47.466;19.004;2024-02-26T00:03:55;31.95;;;21.10;;
59442;SDS011;45247;47.466;19.004;2024-02-26T00:06:26;29.85;;;20.88;;
59442;SDS011;45247;47.466;19.004;2024-02-26T00:08:54;30.25;;;19.63;;
59442;SDS011;45247;47.466;19.004;2024-02-26T00:11:22;28.73;;;19.15;;
59442;SDS011;45247;47.466;19.004;2024-02-26T00:13:50;27.95;;;18.20;;
59442;SDS011;45247;47.466;19.004;2024-02-26T00:16:20;26.92;;;18.40;;
59442;SDS011;45247;47.466;19.004;2024-02-26T00:18:48;27.95;;;18.23;;
59442;SDS011;45247;47.466;19.004;2024-02-26T00:21:16;26.40;;;18.02;;
59442;SDS011;45247;47.466;19.004;2024-02-26T00:23:45;24.83;;;17.58;;
59442;SDS011;45247;47.466;19.004;2024-02-26T00:26:14;24.67;;;16.98;;
59442;SDS011;45247;47.466;19.004;2024-02-26T00:28:42;27.73;;;16.45;;
59442;SDS011;45247;47.466;19.004;2024-02-26T00:31:10;26.25;;;16.92;;
59442;SDS011;45247;47.466;19.004;2024-02-26T00:33:40;24.63;;;15.98;;
59442;SDS011;45247;47.466;19.004;2024-02-26T00:36:08;24.20;;;14.90;;
59442;SDS011;45247;47.466;19.004;2024-02-26T00:38:37;23.10;;;13.52;;
59442;SDS011;45247;47.466;19.004;2024-02-26T00:41:06;20.05;;;13.43;;
59442;SDS011;45247;47.466;19.004;2024-02-26T00:43:34;25.55;;;15.50;;
59442;SDS011;45247;47.466;19.004;2024-02-26T00:46:02;20.67;;;14.05;;
59442;SDS011;45247;47.466;19.004;2024-02-26T00:48:30;20.73;;;14.65;;
59442;SDS011;45247;47.466;19.004;2024-02-26T00:51:00;18.75;;;12.90;;
59442;SDS011;45247;47.466;19.004;2024-02-26T00:53:28;23.52;;;15.48;;
59442;SDS011;45247;47.466;19.004;2024-02-26T00:55:56;22.67;;;14.80;;
59442;SDS011;45247;47.466;19.004;2024-02-26T00:58:25;21.33;;;14.60;;
59442;SDS011;45247;47.466;19.004;2024-02-26T01:00:53;22.45;;;14.48;;
59442;SDS011;45247;47.466;19.004;2024-02-26T01:03:21;22.88;;;14.18;;
59442;SDS011;45247;47.466;19.004;2024-02-26T01:05:50;25.55;;;15.23;;
59442;SDS011;45247;47.466;19.004;2024-02-26T01:08:24;20.02;;;13.63;;
59442;SDS011;45247;47.466;19.004;2024-02-26T01:10:52;19.70;;;13.60;;
59442;SDS011;45247;47.466;19.004;2024-02-26T01:13:20;19.95;;;12.70;;
59442;SDS011;45247;47.466;19.004;2024-02-26T01:15:48;22.20;;;13.15;;
59442;SDS011;45247;47.466;19.004;2024-02-26T01:18:16;22.60;;;13.07;;
59442;SDS011;45247;47.466;19.004;2024-02-26T01:20:44;22.50;;;14.13;;
59442;SDS011;45247;47.466;19.004;2024-02-26T01:23:12;23.05;;;13.20;;
59442;SDS011;45247;47.466;19.004;2024-02-26T01:25:42;21.58;;;13.48;;
59442;SDS011;45247;47.466;19.004;2024-02-26T01:28:10;20.17;;;13.15;;
59442;SDS011;45247;47.466;19.004;2024-02-26T01:30:39;18.95;;;12.52;;
59442;SDS011;45247;47.466;19.004;2024-02-26T01:33:07;22.45;;;13.85;;
59442;SDS011;45247;47.466;19.004;2024-02-26T01:35:36;23.55;;;14.93;;
59442;SDS011;45247;47.466;19.004;2024-02-26T01:38:04;20.30;;;13.90;;
59442;SDS011;45247;47.466;19.004;2024-02-26T01:40:32;27.08;;;14.85;;
59442;SDS011;45247;47.466;19.004;2024-02-26T01:43:02;23.52;;;14.50;;
59442;SDS011;45247;47.466;19.004;2024-02-26T01:45:30;24.83;;;13.68;;
59442;SDS011;45247;47.466;19.004;2024-02-26T01:47:58;20.95;;;13.30;;
59442;SDS011;45247;47.466;19.004;2024-02-26T01:50:27;19.13;;;11.85;;
59442;SDS011;45247;47.466;19.004;2024-02-26T01:52:56;21.98;;;12.50;;
59442;SDS011;45247;47.466;19.004;2024-02-26T01:55:25;17.48;;;11.85;;
59442;SDS011;45247;47.466;19.004;2024-02-26T01:57:54;22.70;;;13.85;;
59442;SDS011;45247;47.466;19.004;2024-02-26T02:00:24;23.40;;;13.65;;
59442;SDS011;45247;47.466;19.004;2024-02-26T02:02:52;21.25;;;13.85;;
59442;SDS011;45247;47.466;19.004;2024-02-26T02:05:22;21.02;;;13.32;;
59442;SDS011;45247;47.466;19.004;2024-02-26T02:07:50;21.58;;;14.55;;
59442;SDS011;45247;47.466;19.004;2024-02-26T02:10:19;22.08;;;14.35;;
59442;SDS011;45247;47.466;19.004;2024-02-26T02:12:49;22.60;;;13.00;;
59442;SDS011;45247;47.466;19.004;2024-02-26T02:15:20;24.60;;;14.18;;
59442;SDS011;45247;47.466;19.004;2024-02-26T02:17:50;21.67;;;14.75;;
59442;SDS011;45247;47.466;19.004;2024-02-26T02:20:18;20.27;;;12.63;;
59442;SDS011;45247;47.466;19.004;2024-02-26T02:22:48;16.48;;;11.20;;
59442;SDS011;45247;47.466;19.004;2024-02-26T02:25:16;17.10;;;12.25;;
59442;SDS011;45247;47.466;19.004;2024-02-26T02:27:44;20.08;;;12.20;;
59442;SDS011;45247;47.466;19.004;2024-02-26T02:30:13;16.80;;;11.40;;
59442;SDS011;45247;47.466;19.004;2024-02-26T02:32:41;21.48;;;13.20;;
59442;SDS011;45247;47.466;19.004;2024-02-26T02:35:10;23.30;;;13.18;;
59442;SDS011;45247;47.466;19.004;2024-02-26T02:37:38;17.27;;;11.77;;
59442;SDS011;45247;47.466;19.004;2024-02-26T02:40:08;20.60;;;12.68;;
59442;SDS011;45247;47.466;19.004;2024-02-26T02:42:36;23.77;;;14.25;;
59442;SDS011;45247;47.466;19.004;2024-02-26T02:45:05;19.67;;;12.75;;
59442;SDS011;45247;47.466;19.004;2024-02-26T02:47:35;22.52;;;13.18;;
59442;SDS011;45247;47.466;19.004;2024-02-26T02:50:04;18.80;;;12.50;;
59442;SDS011;45247;47.466;19.004;2024-02-26T02:52:32;20.02;;;13.30;;
59442;SDS011;45247;47.466;19.004;2024-02-26T02:55:01;22.30;;;13.85;;
59442;SDS011;45247;47.466;19.004;2024-02-26T02:57:31;18.60;;;11.95;;
59442;SDS011;45247;47.466;19.004;2024-02-26T03:00:00;17.30;;;11.82;;
59442;SDS011;45247;47.466;19.004;2024-02-26T03:02:30;20.60;;;13.38;;
59442;SDS011;45247;47.466;19.004;2024-02-26T03:04:58;15.95;;;11.23;;
59442;SDS011;45247;47.466;19.004;2024-02-26T03:07:27;19.10;;;12.95;;
59442;SDS011;45247;47.466;19.004;2024-02-26T03:09:55;18.42;;;12.32;;
59442;SDS011;45247;47.466;19.004;2024-02-26T03:12:23;18.85;;;12.07;;
59442;SDS011;45247;47.466;19.004;2024-02-26T03:14:52;18.35;;;12.32;;
59442;SDS011;45247;47.466;19.004;2024-02-26T03:17:22;19.38;;;12.57;;
59442;SDS011;45247;47.466;19.004;2024-02-26T03:19:51;18.98;;;13.13;;
59442;SDS011;45247;47.466;19.004;2024-02-26T03:22:20;16.08;;;11.38;;
59442;SDS011;45247;47.466;19.004;2024-02-26T03:24:49;19.95;;;12.43;;
59442;SDS011;45247;47.466;19.004;2024-02-26T03:27:17;22.02;;;13.52;;
59442;SDS011;45247;47.466;19.004;2024-02-26T03:29:45;23.45;;;14.70;;
59442;SDS011;45247;47.466;19.004;2024-02-26T03:32:16;23.27;;;14.90;;
59442;SDS011;45247;47.466;19.004;2024-02-26T03:34:44;20.35;;;13.27;;
59442;SDS011;45247;47.466;19.004;2024-02-26T03:37:12;22.85;;;14.65;;
59442;SDS011;45247;47.466;19.004;2024-02-26T03:39:40;22.38;;;15.15;;
59442;SDS011;45247;47.466;19.004;2024-02-26T03:42:08;23.45;;;14.70;;
59442;SDS011;45247;47.466;19.004;2024-02-26T03:44:36;23.30;;;15.38;;
59442;SDS011;45247;47.466;19.004;2024-02-26T03:47:04;24.17;;;15.02;;
59442;SDS011;45247;47.466;19.004;2024-02-26T03:49:34;22.55;;;14.57;;
59442;SDS011;45247;47.466;19.004;2024-02-26T03:52:02;24.35;;;14.68;;
59442;SDS011;45247;47.466;19.004;2024-02-26T03:54:30;25.85;;;15.82;;
59442;SDS011;45247;47.466;19.004;2024-02-26T03:56:58;20.75;;;14.27;;
59442;SDS011;45247;47.466;19.004;2024-02-26T03:59:27;24.08;;;13.73;;
59442;SDS011;45247;47.466;19.004;2024-02-26T04:01:55;20.70;;;15.00;;
59442;SDS011;45247;47.466;19.004;2024-02-26T04:04:23;23.65;;;13.68;;
59442;SDS011;45247;47.466;19.004;2024-02-26T04:06:52;24.27;;;14.82;;
59442;SDS011;45247;47.466;19.004;2024-02-26T04:09:21;24.35;;;16.15;;
59442;SDS011;45247;47.466;19.004;2024-02-26T04:11:49;21.98;;;14.93;;
59442;SDS011;45247;47.466;19.004;2024-02-26T04:14:17;23.60;;;15.52;;
59442;SDS011;45247;47.466;19.004;2024-02-26T04:16:45;26.08;;;16.23;;
59442;SDS011;45247;47.466;19.004;2024-02-26T04:19:17;25.50;;;14.93;;
59442;SDS011;45247;47.466;19.004;2024-02-26T04:21:46;25.30;;;15.93;;
59442;SDS011;45247;47.466;19.004;2024-02-26T04:24:15;25.40;;;15.60;;
59442;SDS011;45247;47.466;19.004;2024-02-26T04:26:43;26.80;;;16.10;;
59442;SDS011;45247;47.466;19.004;2024-02-26T04:29:12;24.27;;;15.38;;
59442;SDS011;45247;47.466;19.004;2024-02-26T04:31:40;21.92;;;14.55;;
59442;SDS011;45247;47.466;19.004;2024-02-26T04:34:09;24.60;;;15.23;;
59442;SDS011;45247;47.466;19.004;2024-02-26T04:36:40;26.08;;;15.27;;
59442;SDS011;45247;47.466;19.004;2024-02-26T04:39:08;25.63;;;14.50;;
59442;SDS011;45247;47.466;19.004;2024-02-26T04:41:39;25.35;;;14.55;;
59442;SDS011;45247;47.466;19.004;2024-02-26T04:44:07;22.58;;;13.57;;
59442;SDS011;45247;47.466;19.004;2024-02-26T04:46:35;25.50;;;15.45;;
59442;SDS011;45247;47.466;19.004;2024-02-26T04:49:03;23.00;;;14.10;;
59442;SDS011;45247;47.466;19.004;2024-02-26T04:51:32;21.83;;;14.15;;
59442;SDS011;45247;47.466;19.004;2024-02-26T04:54:00;22.40;;;13.85;;
59442;SDS011;45247;47.466;19.004;2024-02-26T04:56:28;20.83;;;13.30;;
59442;SDS011;45247;47.466;19.004;2024-02-26T04:58:58;20.58;;;13.48;;
59442;SDS011;45247;47.466;19.004;2024-02-26T05:01:26;22.95;;;13.13;;
59442;SDS011;45247;47.466;19.004;2024-02-26T05:03:54;19.70;;;13.27;;
59442;SDS011;45247;47.466;19.004;2024-02-26T05:06:22;22.40;;;12.85;;
59442;SDS011;45247;47.466;19.004;2024-02-26T05:08:51;21.30;;;13.93;;
59442;SDS011;45247;47.466;19.004;2024-02-26T05:11:19;23.48;;;14.50;;
59442;SDS011;45247;47.466;19.004;2024-02-26T05:13:47;22.35;;;14.10;;
59442;SDS011;45247;47.466;19.004;2024-02-26T05:16:17;20.70;;;12.98;;
59442;SDS011;45247;47.466;19.004;2024-02-26T05:18:47;21.93;;;14.70;;
59442;SDS011;45247;47.466;19.004;2024-02-26T05:21:15;22.00;;;14.07;;
59442;SDS011;45247;47.466;19.004;2024-02-26T05:23:44;21.60;;;13.90;;
59442;SDS011;45247;47.466;19.004;2024-02-26T05:26:18;23.20;;;13.60;;
59442;SDS011;45247;47.466;19.004;2024-02-26T05:28:47;21.98;;;13.77;;
59442;SDS011;45247;47.466;19.004;2024-02-26T05:31:17;24.10;;;13.63;;
59442;SDS011;45247;47.466;19.004;2024-02-26T05:33:45;21.10;;;13.60;;
59442;SDS011;45247;47.466;19.004;2024-02-26T05:36:17;20.52;;;13.40;;
59442;SDS011;45247;47.466;19.004;2024-02-26T05:38:47;23.40;;;14.30;;
59442;SDS011;45247;47.466;19.004;2024-02-26T05:41:16;23.70;;;13.93;;
59442;SDS011;45247;47.466;19.004;2024-02-26T05:43:49;23.40;;;14.30;;
59442;SDS011;45247;47.466;19.004;2024-02-26T05:46:19;19.90;;;13.40;;
59442;SDS011;45247;47.466;19.004;2024-02-26T05:48:51;23.88;;;14.77;;
59442;SDS011;45247;47.466;19.004;2024-02-26T05:51:19;25.20;;;14.50;;
59442;SDS011;45247;47.466;19.004;2024-02-26T05:53:48;21.83;;;13.55;;
59442;SDS011;45247;47.466;19.004;2024-02-26T05:58:49;25.45;;;13.75;;
59442;SDS011;45247;47.466;19.004;2024-02-26T06:01:20;25.80;;;15.38;;
59442;SDS011;45247;47.466;19.004;2024-02-26T06:03:48;23.85;;;15.45;;
59442;SDS011;45247;47.466;19.004;2024-02-26T06:06:16;25.50;;;15.70;;
59442;SDS011;45247;47.466;19.004;2024-02-26T06:08:45;31.92;;;17.67;;
59442;SDS011;45247;47.466;19.004;2024-02-26T06:11:13;28.90;;;17.17;;
59442;SDS011;45247;47.466;19.004;2024-02-26T06:13:41;29.08;;;16.50;;
59442;SDS011;45247;47.466;19.004;2024-02-26T06:16:09;29.02;;;16.88;;
59442;SDS011;45247;47.466;19.004;2024-02-26T06:18:39;26.42;;;15.77;;
59442;SDS011;45247;47.466;19.004;2024-02-26T06:21:09;29.30;;;16.98;;
59442;SDS011;45247;47.466;19.004;2024-02-26T06:23:37;24.45;;;15.40;;
59442;SDS011;45247;47.466;19.004;2024-02-26T06:26:06;25.58;;;16.33;;
59442;SDS011;45247;47.466;19.004;2024-02-26T06:28:34;28.05;;;17.27;;
59442;SDS011;45247;47.466;19.004;2024-02-26T06:31:02;28.20;;;16.90;;
59442;SDS011;45247;47.466;19.004;2024-02-26T06:33:30;27.10;;;16.63;;
59442;SDS011;45247;47.466;19.004;2024-02-26T06:36:00;26.98;;;17.00;;
59442;SDS011;45247;47.466;19.004;2024-02-26T06:38:28;31.77;;;16.58;;
59442;SDS011;45247;47.466;19.004;2024-02-26T06:40:56;28.65;;;17.23;;
59442;SDS011;45247;47.466;19.004;2024-02-26T06:43:25;24.35;;;15.23;;
59442;SDS011;45247;47.466;19.004;2024-02-26T06:45:53;26.75;;;15.95;;
59442;SDS011;45247;47.466;19.004;2024-02-26T06:48:22;25.02;;;15.52;;
59442;SDS011;45247;47.466;19.004;2024-02-26T06:50:51;27.98;;;16.40;;
59442;SDS011;45247;47.466;19.004;2024-02-26T06:53:21;26.85;;;14.93;;
59442;SDS011;45247;47.466;19.004;2024-02-26T06:55:49;25.52;;;15.85;;
59442;SDS011;45247;47.466;19.004;2024-02-26T06:58:17;23.13;;;14.52;;
59442;SDS011;45247;47.466;19.004;2024-02-26T07:00:45;29.42;;;15.30;;
59442;SDS011;45247;47.466;19.004;2024-02-26T07:03:14;25.10;;;15.10;;
59442;SDS011;45247;47.466;19.004;2024-02-26T07:05:42;25.15;;;15.00;;
59442;SDS011;45247;47.466;19.004;2024-02-26T07:08:12;25.63;;;15.65;;
59442;SDS011;45247;47.466;19.004;2024-02-26T07:10:42;24.10;;;15.23;;
59442;SDS011;45247;47.466;19.004;2024-02-26T07:13:10;28.63;;;16.80;;
59442;SDS011;45247;47.466;19.004;2024-02-26T07:15:38;28.15;;;17.75;;
59442;SDS011;45247;47.466;19.004;2024-02-26T07:18:06;26.58;;;16.85;;
59442;SDS011;45247;47.466;19.004;2024-02-26T07:20:35;32.60;;;19.75;;
59442;SDS011;45247;47.466;19.004;2024-02-26T07:23:03;31.17;;;18.65;;
59442;SDS011;45247;47.466;19.004;2024-02-26T07:25:33;33.15;;;19.35;;
59442;SDS011;45247;47.466;19.004;2024-02-26T07:28:02;28.45;;;17.83;;
59442;SDS011;45247;47.466;19.004;2024-02-26T07:30:31;27.67;;;17.00;;
59442;SDS011;45247;47.466;19.004;2024-02-26T07:32:59;26.20;;;16.80;;
59442;SDS011;45247;47.466;19.004;2024-02-26T07:35:27;30.20;;;19.77;;
59442;SDS011;45247;47.466;19.004;2024-02-26T07:37:55;29.98;;;19.02;;
59442;SDS011;45247;47.466;19.004;2024-02-26T07:40:23;27.80;;;18.85;;
59442;SDS011;45247;47.466;19.004;2024-02-26T07:42:52;31.17;;;19.83;;
59442;SDS011;45247;47.466;19.004;2024-02-26T07:45:21;30.60;;;19.80;;
59442;SDS011;45247;47.466;19.004;2024-02-26T07:47:50;31.55;;;20.25;;
59442;SDS011;45247;47.466;19.004;2024-02-26T07:50:18;28.00;;;19.58;;
59442;SDS011;45247;47.466;19.004;2024-02-26T07:52:47;31.45;;;20.73;;
59442;SDS011;45247;47.466;19.004;2024-02-26T07:55:17;29.15;;;19.83;;
59442;SDS011;45247;47.466;19.004;2024-02-26T07:57:45;33.25;;;21.70;;
59442;SDS011;45247;47.466;19.004;2024-02-26T08:00:14;27.73;;;20.42;;
59442;SDS011;45247;47.466;19.004;2024-02-26T08:02:45;31.30;;;20.80;;
59442;SDS011;45247;47.466;19.004;2024-02-26T08:05:13;32.45;;;20.38;;
59442;SDS011;45247;47.466;19.004;2024-02-26T08:07:42;35.55;;;20.73;;
59442;SDS011;45247;47.466;19.004;2024-02-26T08:10:10;30.27;;;20.52;;
59442;SDS011;45247;47.466;19.004;2024-02-26T08:12:38;31.33;;;19.98;;
59442;SDS011;45247;47.466;19.004;2024-02-26T08:15:06;31.17;;;21.42;;
59442;SDS011;45247;47.466;19.004;2024-02-26T08:17:35;28.50;;;20.15;;
59442;SDS011;45247;47.466;19.004;2024-02-26T08:20:06;31.55;;;20.65;;
59442;SDS011;45247;47.466;19.004;2024-02-26T08:22:35;28.65;;;19.88;;
59442;SDS011;45247;47.466;19.004;2024-02-26T08:25:04;31.75;;;21.40;;
59442;SDS011;45247;47.466;19.004;2024-02-26T08:27:33;29.88;;;20.52;;
59442;SDS011;45247;47.466;19.004;2024-02-26T08:30:01;30.73;;;20.25;;
59442;SDS011;45247;47.466;19.004;2024-02-26T08:32:30;32.63;;;21.13;;
59442;SDS011;45247;47.466;19.004;2024-02-26T08:34:58;30.75;;;21.25;;
59442;SDS011;45247;47.466;19.004;2024-02-26T08:37:28;32.17;;;20.77;;
59442;SDS011;45247;47.466;19.004;2024-02-26T08:39:56;28.75;;;19.65;;
59442;SDS011;45247;47.466;19.004;2024-02-26T08:42:28;33.85;;;21.58;;
59442;SDS011;45247;47.466;19.004;2024-02-26T08:44:57;31.08;;;21.27;;
59442;SDS011;45247;47.466;19.004;2024-02-26T08:47:26;33.40;;;21.42;;
59442;SDS011;45247;47.466;19.004;2024-02-26T08:49:55;28.10;;;20.38;;
59442;SDS011;45247;47.466;19.004;2024-02-26T08:52:23;33.22;;;23.15;;
59442;SDS011;45247;47.466;19.004;2024-02-26T08:54:52;32.15;;;22.20;;
59442;SDS011;45247;47.466;19.004;2024-02-26T08:57:20;29.88;;;20.92;;
59442;SDS011;45247;47.466;19.004;2024-02-26T08:59:49;30.80;;;22.25;;
59442;SDS011;45247;47.466;19.004;2024-02-26T09:02:17;32.65;;;21.85;;
59442;SDS011;45247;47.466;19.004;2024-02-26T09:04:46;34.38;;;21.60;;
59442;SDS011;45247;47.466;19.004;2024-02-26T09:07:14;28.10;;;19.85;;
59442;SDS011;45247;47.466;19.004;2024-02-26T09:09:42;28.48;;;20.30;;
59442;SDS011;45247;47.466;19.004;2024-02-26T09:12:12;28.00;;;18.98;;
59442;SDS011;45247;47.466;19.004;2024-02-26T09:14:40;27.23;;;18.95;;
59442;SDS011;45247;47.466;19.004;2024-02-26T09:17:08;29.63;;;19.25;;
59442;SDS011;45247;47.466;19.004;2024-02-26T09:19:38;27.77;;;18.77;;
59442;SDS011;45247;47.466;19.004;2024-02-26T09:22:06;29.38;;;19.35;;
59442;SDS011;45247;47.466;19.004;2024-02-26T09:24:34;31.58;;;18.45;;
59442;SDS011;45247;47.466;19.004;2024-02-26T09:27:04;25.73;;;18.98;;
59442;SDS011;45247;47.466;19.004;2024-02-26T09:29:34;29.02;;;19.52;;
59442;SDS011;45247;47.466;19.004;2024-02-26T09:32:03;30.00;;;20.13;;
59442;SDS011;45247;47.466;19.004;2024-02-26T09:34:31;28.00;;;19.58;;
59442;SDS011;45247;47.466;19.004;2024-02-26T09:37:00;32.13;;;20.25;;
59442;SDS011;45247;47.466;19.004;2024-02-26T09:39:41;26.50;;;18.77;;
59442;SDS011;45247;47.466;19.004;2024-02-26T09:42:09;26.75;;;21.40;;
59442;SDS011;45247;47.466;19.004;2024-02-26T09:44:40;26.95;;;20.42;;
59442;SDS011;45247;47.466;19.004;2024-02-26T09:47:09;32.20;;;21.10;;
59442;SDS011;45247;47.466;19.004;2024-02-26T09:49:39;24.65;;;19.35;;
59442;SDS011;45247;47.466;19.004;2024-02-26T09:52:08;28.58;;;20.35;;
59442;SDS011;45247;47.466;19.004;2024-02-26T09:54:36;32.67;;;20.20;;
59442;SDS011;45247;47.466;19.004;2024-02-26T09:57:05;24.63;;;18.52;;
59442;SDS011;45247;47.466;19.004;2024-02-26T09:59:44;25.13;;;18.05;;
59442;SDS011;45247;47.466;19.004;2024-02-26T10:02:14;27.05;;;19.75;;
59442;SDS011;45247;47.466;19.004;2024-02-26T10:04:43;26.08;;;19.42;;
59442;SDS011;45247;47.466;19.004;2024-02-26T10:07:17;27.70;;;20.33;;
59442;SDS011;45247;47.466;19.004;2024-02-26T10:09:45;28.67;;;20.77;;
59442;SDS011;45247;47.466;19.004;2024-02-26T10:12:13;26.73;;;20.45;;
59442;SDS011;45247;47.466;19.004;2024-02-26T10:14:45;30.25;;;21.83;;
59442;SDS011;45247;47.466;19.004;2024-02-26T10:17:13;30.00;;;21.10;;
59442;SDS011;45247;47.466;19.004;2024-02-26T10:19:42;31.83;;;21.17;;
59442;SDS011;45247;47.466;19.004;2024-02-26T10:22:11;28.10;;;19.35;;
59442;SDS011;45247;47.466;19.004;2024-02-26T10:24:39;29.00;;;19.88;;
59442;SDS011;45247;47.466;19.004;2024-02-26T10:27:07;26.27;;;20.50;;
59442;SDS011;45247;47.466;19.004;2024-02-26T10:29:36;25.30;;;18.55;;
59442;SDS011;45247;47.466;19.004;2024-02-26T10:32:06;29.35;;;18.50;;
59442;SDS011;45247;47.466;19.004;2024-02-26T10:34:35;30.10;;;19.30;;
59442;SDS011;45247;47.466;19.004;2024-02-26T10:37:04;23.52;;;19.17;;
59442;SDS011;45247;47.466;19.004;2024-02-26T10:39:33;26.23;;;18.15;;
59442;SDS011;45247;47.466;19.004;2024-02-26T10:42:03;25.45;;;16.77;;
59442;SDS011;45247;47.466;19.004;2024-02-26T10:44:37;28.33;;;18.55;;
59442;SDS011;45247;47.466;19.004;2024-02-26T10:47:10;23.40;;;17.45;;
59442;SDS011;45247;47.466;19.004;2024-02-26T10:49:44;27.40;;;15.38;;
59442;SDS011;45247;47.466;19.004;2024-02-26T10:52:13;20.00;;;14.35;;
59442;SDS011;45247;47.466;19.004;2024-02-26T10:54:43;20.10;;;14.70;;
59442;SDS011;45247;47.466;19.004;2024-02-26T10:57:17;18.00;;;13.68;;
59442;SDS011;45247;47.466;19.004;2024-02-26T10:59:46;22.02;;;14.60;;
59442;SDS011;45247;47.466;19.004;2024-02-26T11:02:18;22.73;;;13.32;;
59442;SDS011;45247;47.466;19.004;2024-02-26T11:04:46;20.65;;;14.35;;
59442;SDS011;45247;47.466;19.004;2024-02-26T11:07:16;22.73;;;14.35;;
59442;SDS011;45247;47.466;19.004;2024-02-26T11:09:45;18.13;;;12.70;;
59442;SDS011;45247;47.466;19.004;2024-02-26T11:12:18;20.60;;;11.90;;
59442;SDS011;45247;47.466;19.004;2024-02-26T11:14:48;18.30;;;11.90;;
59442;SDS011;45247;47.466;19.004;2024-02-26T11:17:23;19.15;;;12.57;;
59442;SDS011;45247;47.466;19.004;2024-02-26T11:19:55;16.38;;;11.70;;
59442;SDS011;45247;47.466;19.004;2024-02-26T11:22:24;14.13;;;9.60;;
59442;SDS011;45247;47.466;19.004;2024-02-26T11:24:52;16.17;;;10.85;;
59442;SDS011;45247;47.466;19.004;2024-02-26T11:27:24;15.02;;;10.75;;
59442;SDS011;45247;47.466;19.004;2024-02-26T11:29:57;20.80;;;10.82;;
59442;SDS011;45247;47.466;19.004;2024-02-26T11:32:29;14.65;;;10.60;;
59442;SDS011;45247;47.466;19.004;2024-02-26T11:34:58;15.48;;;10.23;;
59442;SDS011;45247;47.466;19.004;2024-02-26T11:37:27;14.45;;;10.48;;
59442;SDS011;45247;47.466;19.004;2024-02-26T11:39:55;19.55;;;11.18;;
59442;SDS011;45247;47.466;19.004;2024-02-26T11:44:56;16.55;;;10.48;;
59442;SDS011;45247;47.466;19.004;2024-02-26T11:47:29;14.52;;;8.88;;
59442;SDS011;45247;47.466;19.004;2024-02-26T11:49:57;17.55;;;9.02;;
59442;SDS011;45247;47.466;19.004;2024-02-26T11:52:25;12.88;;;9.50;;
59442;SDS011;45247;47.466;19.004;2024-02-26T11:54:55;17.13;;;9.30;;
59442;SDS011;45247;47.466;19.004;2024-02-26T11:57:24;11.55;;;8.57;;
59442;SDS011;45247;47.466;19.004;2024-02-26T11:59:54;11.13;;;7.90;;
59442;SDS011;45247;47.466;19.004;2024-02-26T12:02:41;10.98;;;7.15;;
59442;SDS011;45247;47.466;19.004;2024-02-26T12:05:12;11.13;;;7.80;;
59442;SDS011;45247;47.466;19.004;2024-02-26T12:07:46;10.93;;;7.63;;
59442;SDS011;45247;47.466;19.004;2024-02-26T12:12:48;13.10;;;7.25;;
59442;SDS011;45247;47.466;19.004;2024-02-26T12:15:17;14.02;;;7.53;;
59442;SDS011;45247;47.466;19.004;2024-02-26T12:17:49;13.93;;;6.95;;
59442;SDS011;45247;47.466;19.004;2024-02-26T12:20:19;12.02;;;7.22;;
59442;SDS011;45247;47.466;19.004;2024-02-26T12:22:47;10.82;;;6.82;;
59442;SDS011;45247;47.466;19.004;2024-02-26T12:25:21;12.65;;;7.35;;
59442;SDS011;45247;47.466;19.004;2024-02-26T12:27:51;8.98;;;7.25;;
59442;SDS011;45247;47.466;19.004;2024-02-26T12:30:19;9.07;;;7.05;;
59442;SDS011;45247;47.466;19.004;2024-02-26T12:32:49;13.73;;;7.40;;
59442;SDS011;45247;47.466;19.004;2024-02-26T12:35:19;9.80;;;7.15;;
59442;SDS011;45247;47.466;19.004;2024-02-26T12:37:47;10.98;;;6.75;;
59442;SDS011;45247;47.466;19.004;2024-02-26T12:40:15;9.77;;;6.28;;
59442;SDS011;45247;47.466;19.004;2024-02-26T12:42:43;9.25;;;5.72;;
59442;SDS011;45247;47.466;19.004;2024-02-26T12:45:12;9.15;;;5.93;;
59442;SDS011;45247;47.466;19.004;2024-02-26T12:47:42;10.60;;;6.05;;
59442;SDS011;45247;47.466;19.004;2024-02-26T12:50:13;10.98;;;6.80;;
59442;SDS011;45247;47.466;19.004;2024-02-26T12:52:43;9.63;;;6.85;;
59442;SDS011;45247;47.466;19.004;2024-02-26T12:55:13;8.73;;;5.70;;
59442;SDS011;45247;47.466;19.004;2024-02-26T12:57:42;14.85;;;6.85;;
59442;SDS011;45247;47.466;19.004;2024-02-26T13:00:12;10.38;;;6.63;;
59442;SDS011;45247;47.466;19.004;2024-02-26T13:02:44;8.98;;;6.25;;
59442;SDS011;45247;47.466;19.004;2024-02-26T13:05:15;8.13;;;5.70;;
59442;SDS011;45247;47.466;19.004;2024-02-26T13:07:44;9.30;;;6.30;;
59442;SDS011;45247;47.466;19.004;2024-02-26T13:10:13;8.07;;;6.20;;
59442;SDS011;45247;47.466;19.004;2024-02-26T13:12:44;8.65;;;5.47;;
59442;SDS011;45247;47.466;19.004;2024-02-26T13:15:14;10.68;;;6.07;;
59442;SDS011;45247;47.466;19.004;2024-02-26T13:17:43;12.38;;;5.55;;
59442;SDS011;45247;47.466;19.004;2024-02-26T13:20:13;10.07;;;5.35;;
59442;SDS011;45247;47.466;19.004;2024-02-26T13:22:59;11.15;;;6.28;;
59442;SDS011;45247;47.466;19.004;2024-02-26T13:25:27;9.57;;;5.65;;
59442;SDS011;45247;47.466;19.004;2024-02-26T13:28:04;8.68;;;6.00;;
59442;SDS011;45247;47.466;19.004;2024-02-26T13:30:34;8.07;;;5.85;;
59442;SDS011;45247;47.466;19.004;2024-02-26T13:33:08;9.00;;;6.07;;
59442;SDS011;45247;47.466;19.004;2024-02-26T13:35:39;7.80;;;5.63;;
59442;SDS011;45247;47.466;19.004;2024-02-26T13:38:07;11.48;;;5.85;;
59442;SDS011;45247;47.466;19.004;2024-02-26T13:40:35;7.18;;;5.38;;
59442;SDS011;45247;47.466;19.004;2024-02-26T13:43:03;11.55;;;5.75;;
59442;SDS011;45247;47.466;19.004;2024-02-26T13:45:33;7.80;;;5.55;;
59442;SDS011;45247;47.466;19.004;2024-02-26T13:48:03;6.65;;;4.95;;
59442;SDS011;45247;47.466;19.004;2024-02-26T13:50:33;7.47;;;6.07;;
59442;SDS011;45247;47.466;19.004;2024-02-26T13:53:03;10.23;;;6.65;;
59442;SDS011;45247;47.466;19.004;2024-02-26T13:55:31;10.85;;;6.88;;
59442;SDS011;45247;47.466;19.004;2024-02-26T13:58:00;8.30;;;6.45;;
59442;SDS011;45247;47.466;19.004;2024-02-26T14:00:29;10.45;;;6.68;;
59442;SDS011;45247;47.466;19.004;2024-02-26T14:02:58;9.80;;;7.15;;
59442;SDS011;45247;47.466;19.004;2024-02-26T14:05:26;10.43;;;6.82;;
59442;SDS011;45247;47.466;19.004;2024-02-26T14:07:56;13.05;;;7.70;;
59442;SDS011;45247;47.466;19.004;2024-02-26T14:10:26;9.02;;;7.40;;
59442;SDS011;45247;47.466;19.004;2024-02-26T14:12:54;10.18;;;7.13;;
59442;SDS011;45247;47.466;19.004;2024-02-26T14:15:22;11.48;;;8.88;;
59442;SDS011;45247;47.466;19.004;2024-02-26T14:17:51;10.13;;;8.40;;
59442;SDS011;45247;47.466;19.004;2024-02-26T14:20:24;11.48;;;8.15;;
59442;SDS011;45247;47.466;19.004;2024-02-26T14:22:53;11.45;;;7.40;;
59442;SDS011;45247;47.466;19.004;2024-02-26T14:25:21;9.13;;;7.50;;
59442;SDS011;45247;47.466;19.004;2024-02-26T14:27:56;9.98;;;7.57;;
59442;SDS011;45247;47.466;19.004;2024-02-26T14:30:25;12.18;;;7.82;;